createdAt,value
2023-02-08T07:08:03.848Z,46.76
2023-02-08T07:10:32.436Z,47.15
2023-02-08T07:13:02.408Z,47.41
2023-02-08T07:15:31.158Z,48.12
2023-02-08T07:18:00.027Z,47.20
2023-02-08T07:20:29.133Z,48.65
2023-02-08T07:22:57.993Z,49.21
2023-02-08T07:25:26.273Z,47.73
2023-02-08T07:27:55.077Z,47.22
2023-02-08T07:30:23.646Z,46.53
2023-02-08T07:32:52.548Z,47.26
2023-02-08T07:35:20.761Z,47.44
2023-02-08T07:37:48.901Z,45.94
2023-02-08T07:40:17.664Z,44.37
2023-02-08T07:42:46.264Z,44.23
2023-02-08T07:45:23.395Z,43.93
2023-02-08T07:47:51.921Z,44.38
2023-02-08T07:50:20.272Z,43.14
2023-02-08T07:52:48.544Z,44.74
2023-02-08T07:55:17.325Z,47.06
2023-02-08T07:57:47.889Z,48.31
2023-02-08T08:00:17.662Z,48.71
2023-02-08T08:02:46.038Z,47.84
2023-02-08T08:05:14.320Z,47.98
2023-02-08T08:07:44.835Z,48.87
2023-02-08T08:10:13.440Z,48.21
2023-02-08T08:12:41.605Z,46.04
2023-02-08T08:15:10.318Z,44.16
2023-02-08T08:17:42.175Z,42.78
2023-02-08T08:20:11.183Z,43.49
2023-02-08T08:22:39.624Z,43.67
2023-02-08T08:25:07.952Z,43.56
2023-02-08T08:27:36.420Z,44.58
2023-02-08T08:30:12.939Z,43.36
2023-02-08T08:32:42.096Z,40.85
2023-02-08T08:35:10.693Z,40.70
2023-02-08T08:37:39.064Z,39.83
2023-02-08T08:40:08.426Z,40.61
2023-02-08T08:42:39.929Z,41.38
2023-02-08T08:45:08.859Z,43.12
2023-02-08T08:47:37.139Z,43.50
2023-02-08T08:50:06.709Z,43.10
2023-02-08T08:52:34.988Z,41.93
2023-02-08T08:55:04.327Z,42.27
2023-02-08T08:57:32.501Z,41.16
2023-02-08T09:00:02.968Z,39.98
2023-02-08T09:02:31.288Z,40.98
2023-02-08T09:05:05.554Z,40.81
2023-02-08T09:07:35.048Z,41.09
2023-02-08T09:10:04.108Z,40.93
2023-02-08T09:12:33.260Z,42.75
2023-02-08T09:15:01.588Z,43.54
2023-02-08T09:17:30.080Z,43.63
2023-02-08T09:19:58.559Z,44.04
2023-02-08T09:22:26.943Z,45.93
2023-02-08T09:24:55.402Z,46.95
2023-02-08T09:27:23.567Z,47.93
2023-02-08T09:29:52.458Z,48.23
2023-02-08T09:32:21.506Z,48.39
2023-02-08T09:34:49.901Z,48.07
2023-02-08T09:37:18.332Z,48.52
2023-02-08T09:39:47.252Z,48.29
2023-02-08T09:42:24.663Z,47.88
2023-02-08T09:45:02.516Z,46.48
2023-02-08T09:47:30.842Z,46.54
2023-02-08T09:50:06.763Z,45.49
2023-02-08T09:52:38.452Z,44.15
2023-02-08T09:55:20.972Z,43.96
2023-02-08T09:57:49.110Z,44.05
2023-02-08T10:00:21.002Z,45.42
2023-02-08T10:02:50.127Z,45.46
2023-02-08T10:05:21.417Z,44.47
2023-02-08T10:07:49.757Z,43.14
2023-02-08T10:10:41.451Z,42.90
2023-02-08T10:13:41.149Z,43.53
2023-02-08T10:16:13.651Z,44.55
2023-02-08T10:19:05.027Z,46.10
2023-02-08T10:21:53.795Z,47.84
2023-02-08T10:24:26.268Z,48.60
2023-02-08T10:27:17.873Z,49.29
2023-02-08T10:30:31.315Z,50.11
2023-02-08T10:33:01.569Z,50.44
2023-02-08T10:35:37.348Z,50.80
2023-02-08T10:38:23.392Z,51.37
2023-02-08T10:40:55.930Z,51.88
2023-02-08T10:43:33.217Z,51.94
2023-02-08T10:46:20.465Z,52.36
2023-02-08T10:48:59.133Z,52.53
2023-02-08T10:51:27.195Z,52.72
2023-02-08T10:53:55.487Z,52.70
2023-02-08T10:56:45.347Z,52.30
2023-02-08T10:59:17.045Z,52.49
2023-02-08T11:01:45.507Z,52.90
2023-02-08T11:04:14.054Z,53.18
2023-02-08T11:06:44.182Z,53.36
2023-02-08T11:09:26.153Z,53.26
2023-02-08T11:11:55.274Z,52.95
2023-02-08T11:14:46.196Z,52.94
2023-02-08T11:17:35.773Z,52.86
2023-02-08T11:20:04.331Z,52.49
2023-02-08T11:22:34.596Z,52.27
2023-02-08T11:25:06.174Z,52.55
2023-02-08T11:27:36.627Z,52.90
2023-02-08T11:30:14.079Z,52.63
2023-02-08T11:32:43.342Z,52.54
2023-02-08T11:35:20.692Z,52.91
2023-02-08T11:37:50.476Z,53.06
2023-02-08T11:40:24.998Z,53.32
2023-02-08T11:42:54.400Z,53.44
2023-02-08T11:45:30.459Z,53.70
2023-02-08T11:47:58.944Z,54.17
2023-02-08T11:50:39.918Z,54.35
2023-02-08T11:53:23.448Z,54.19
2023-02-08T11:56:22.644Z,54.31
2023-02-08T11:59:09.522Z,54.11
2023-02-08T12:01:39.722Z,54.20
2023-02-08T12:04:11.163Z,54.35
2023-02-08T12:07:12.355Z,54.03
2023-02-08T12:09:58.534Z,54.84
2023-02-08T12:12:49.327Z,54.68
2023-02-08T12:15:23.532Z,54.59
2023-02-08T12:18:26.110Z,54.75
2023-02-08T12:21:28.680Z,55.13
2023-02-08T12:24:06.780Z,55.23
2023-02-08T12:26:55.115Z,55.01
2023-02-08T12:29:23.576Z,55.53
2023-02-08T12:32:06.824Z,55.42
2023-02-08T12:34:56.489Z,55.71
2023-02-08T12:37:44.010Z,56.06
2023-02-08T12:40:44.054Z,55.93
2023-02-08T12:43:54.567Z,56.19
2023-02-08T12:46:26.055Z,56.45
2023-02-08T12:49:03.605Z,56.57
2023-02-08T12:51:37.726Z,56.43
2023-02-08T12:54:26.171Z,56.48
2023-02-08T12:57:02.090Z,56.57
2023-02-08T12:59:59.512Z,56.71
2023-02-08T13:02:57.477Z,56.87
2023-02-08T13:05:30.294Z,56.58
2023-02-08T13:08:15.884Z,56.53
2023-02-08T13:10:46.869Z,56.60
2023-02-08T13:13:18.196Z,56.74
2023-02-08T13:15:54.147Z,56.93
2023-02-08T13:18:25.098Z,56.95
2023-02-08T13:21:08.612Z,56.82
2023-02-08T13:23:50.582Z,56.93
2023-02-08T13:26:23.157Z,57.08
2023-02-08T13:28:56.499Z,57.06
2023-02-08T13:31:28.597Z,57.44
2023-02-08T13:34:08.439Z,57.85
2023-02-08T13:36:40.195Z,57.85
2023-02-08T13:39:22.534Z,58.06
2023-02-08T13:41:52.783Z,57.67
2023-02-08T13:44:26.658Z,57.85
2023-02-08T13:46:54.916Z,57.71
2023-02-08T13:49:49.397Z,57.84
2023-02-08T13:52:46.395Z,57.92
2023-02-08T13:55:32.184Z,57.80
2023-02-08T13:58:01.182Z,58.24
2023-02-08T14:00:37.350Z,58.61
2023-02-08T14:03:14.995Z,58.95
2023-02-08T14:06:15.579Z,59.14
2023-02-08T14:09:23.733Z,59.33
2023-02-08T14:11:57.280Z,59.57
2023-02-08T14:14:26.821Z,59.78
2023-02-08T14:17:04.701Z,60.16
2023-02-08T14:19:41.124Z,60.31
2023-02-08T14:22:12.719Z,60.26
2023-02-08T14:24:59.299Z,60.24
2023-02-08T14:27:39.466Z,60.30
2023-02-08T14:30:16.752Z,60.38
2023-02-08T14:33:07.631Z,60.21
2023-02-08T14:35:37.869Z,60.43
2023-02-08T14:38:24.558Z,60.70
2023-02-08T14:40:59.593Z,60.95
2023-02-08T14:43:41.277Z,61.17
2023-02-08T14:46:38.077Z,61.22
2023-02-08T14:49:17.161Z,61.27
2023-02-08T14:51:51.547Z,61.37
2023-02-08T14:54:34.134Z,61.59
2023-02-08T14:57:12.035Z,61.56
2023-02-08T14:59:40.858Z,61.68
2023-02-08T15:02:20.196Z,61.96
2023-02-08T15:04:49.506Z,61.99
2023-02-08T15:07:35.785Z,62.13
2023-02-08T15:10:05.575Z,62.14
2023-02-08T15:12:35.857Z,62.39
